那覇空港の過去48時間の天気

那覇空港 (Naha)

現在時刻: 2/25 15:01 JST (2/25 06:01 UTC) 以下の時間は現地時間です。

過去48時間のMETAR気象情報
時間 風向 風速(m/s) 視程 気温(℃) 湿度(%) 気圧(hPa) 天気現象
25 14:30 5 10km以上 24 83 1018
25 14:00 6 10km以上 25 78 1018
25 13:30 6 10km以上 25 78 1019
25 13:00 6 10km以上 25 78 1019
25 12:30 6 10km以上 25 78 1019
25 12:00 6 10km以上 25 78 1019
25 11:30 6 10km以上 25 78 1020
25 11:00 7 10km以上 25 78 1020
25 10:30 7 10km以上 25 74 1020
25 10:00 南南東 7 10km以上 24 78 1020
25 09:30 南南東 6 10km以上 23 89 1020
25 09:00 南南東 5 10km以上 23 83 1021
25 08:30 南東 5 10km以上 22 94 1021
25 08:00 南東 4 10km以上 21 94 1020
25 07:30 南東 4 10km以上 21 88 1020 周辺でしゅう雨
25 07:00 南東 4 10km以上 21 88 1020 周辺でしゅう雨
25 06:30 南東 4 10km以上 21 88 1020 弱いしゅう雨
25 06:00 東南東 3 10km以上 21 88 1020 周辺でしゅう雨
25 05:30 東南東 3 10km以上 21 88 1020 周辺でしゅう雨
25 05:00 東南東 4 10km以上 21 88 1020 弱いしゅう雨
25 04:30 東南東 2 10km以上 21 88 1020 周辺でしゅう雨
25 04:00 東南東 3 10km以上 20 88 1020 周辺でしゅう雨
25 03:30 東南東 3 10km以上 20 88 1020
25 03:00 3 10km以上 20 88 1020
25 02:30 東南東 3 10km以上 20 88 1021
25 02:00 3 10km以上 21 83 1021
25 01:30 東南東 4 10km以上 21 78 1021
25 01:00 東南東 5 10km以上 20 83 1021
25 00:30 東南東 4 10km以上 21 78 1022
25 00:00 東南東 4 10km以上 20 78 1022
24 23:30 東南東 4 10km以上 21 73 1022
24 23:00 東南東 4 10km以上 20 78 1022
24 22:30 東南東 4 10km以上 21 73 1022
24 22:00 東南東 4 10km以上 20 78 1022
24 21:30 東南東 4 10km以上 20 78 1022
24 21:00 東南東 4 10km以上 20 78 1022
24 20:30 東南東 4 10km以上 20 78 1022
24 20:00 東南東 4 10km以上 20 73 1022
24 19:30 3 10km以上 20 73 1022
24 19:00 4 10km以上 20 73 1022
24 18:30 5 10km以上 20 73 1022
24 18:00 5 10km以上 20 73 1022
24 17:30 5 10km以上 21 69 1021
24 17:00 6 10km以上 21 69 1021
24 16:30 6 10km以上 21 69 1021
24 16:00 6 10km以上 21 64 1021
24 15:30 5 10km以上 22 60 1022
24 15:00 5 10km以上 22 65 1022
24 14:30 6 10km以上 22 60 1022
24 14:00 東南東 4 10km以上 23 57 1022
24 13:30 5 10km以上 22 57 1023
24 13:00 東南東 4 10km以上 23 57 1023
24 12:30 3 10km以上 22 60 1024
24 12:00 南東 4 10km以上 22 60 1024
24 11:30 4 10km以上 21 64 1025
24 11:00 4 10km以上 21 60 1025
24 10:30 4 10km以上 22 57 1025
24 10:00 5 10km以上 21 60 1026
24 09:30 5 10km以上 20 64 1026
24 09:00 5 10km以上 19 73 1026
24 08:30 3 10km以上 18 77 1025
24 08:00 東北東 2 10km以上 17 77 1025
24 07:30 不定 1 10km以上 17 77 1025
24 07:00 北東 2 10km以上 15 82 1025
24 06:30 東北東 2 10km以上 16 77 1025
24 06:00 東北東 1 10km以上 16 77 1024
24 05:30 北東 2 10km以上 16 77 1024
24 05:00 2 10km以上 15 77 1024
24 04:30 2 10km以上 16 72 1024
24 04:00 東北東 2 10km以上 16 77 1024
24 03:30 北東 1 10km以上 17 72 1025
24 03:00 北東 1 10km以上 16 77 1025
24 02:30 1 10km以上 16 72 1025
24 02:00 東北東 2 10km以上 17 72 1025
24 01:30 1 10km以上 17 72 1025
24 01:00 北東 1 10km以上 17 68 1026
24 00:30 東北東 2 10km以上 17 68 1026
24 00:00 2 10km以上 17 68 1026
23 23:30 2 10km以上 17 68 1026
23 23:00 東南東 2 10km以上 17 68 1026
23 22:30 東北東 2 10km以上 17 68 1026
23 22:00 北東 3 10km以上 17 68 1026
23 21:30 北東 4 10km以上 18 64 1026
23 21:00 北東 4 10km以上 18 64 1026
23 20:30 北東 5 10km以上 18 64 1026
23 20:00 東北東 5 10km以上 18 64 1026
23 19:30 東北東 5 10km以上 18 64 1025
23 19:00 北東 5 10km以上 18 64 1025
23 18:30 東北東 5 10km以上 18 64 1025
23 18:00 東北東 6 10km以上 19 60 1025
23 17:30 東北東 5 10km以上 20 56 1025
23 17:00 東北東 6 10km以上 19 60 1025
23 16:30 6 10km以上 20 56 1025
23 16:00 東北東 6 10km以上 20 56 1025
23 15:30 6 10km以上 20 60 1025
ROAH 250530Z 19010KT 9999 FEW007 BKN090 24/21 Q1018 RMK 1ST007 6AC090 A3007
ROAH 250500Z 18011KT 9999 FEW009 25/21 Q1018 RMK 2CU009 A3008
ROAH 250430Z 18012KT 9999 FEW010 BKN100 25/21 Q1019 RMK 2CU010 5AC100 A3009
ROAH 250400Z 18012KT 9999 SCT010 BKN100 25/21 Q1019 RMK 3CU010 6AC100 A3010
ROAH 250330Z 19012KT 9999 FEW010 BKN090 25/21 Q1019 RMK 2CU010 6AC090 A3011
ROAH 250300Z 19011KT 9999 SCT010 BKN090 25/21 Q1019 RMK 3CU010 6AC090 A3011
ROAH 250230Z 17011KT 9999 SCT010 BKN100 25/21 Q1020 RMK 3CU010 6AC100 A3012
ROAH 250200Z 18013KT 9999 FEW010 SCT100 25/21 Q1020 RMK 2CU010 4AC100 A3013
ROAH 250130Z 17014KT 9999 FEW010 BKN070 25/20 Q1020 RMK 1CU010 5AC070 A3013
ROAH 250100Z 16013KT 9999 FEW010 24/20 Q1020 RMK 2CU010 A3014
ROAH 250030Z 15011KT 9999 FEW010 SCT090 23/21 Q1020 RMK 1CU010 3AC090 A3015
ROAH 250000Z 16010KT 9999 FEW010 BKN090 23/20 Q1021 RMK 2CU010 5AC090 A3015
ROAH 242330Z 13009KT 9999 FEW025 BKN080 22/21 Q1021 RMK 1CU025 5AC080 A3015
ROAH 242300Z 13008KT 9999 FEW025 21/20 Q1020 RMK 1CU025 A3014
ROAH 242230Z 13008KT 9999 VCSH FEW025 BKN080 21/19 Q1020 RMK 1CU025 6AC080 A3013
ROAH 242200Z 13008KT 9999 VCSH FEW025 SCT050 BKN080 21/19 Q1020 RMK 1CU025 3SC050 6AC080 A3013
ROAH 242130Z 14008KT 9999 -SHRA FEW025 BKN050 21/19 Q1020 RMK 1CU025 6SC050 A3013
ROAH 242100Z 12005KT 9999 VCSH FEW025 BKN070 21/19 Q1020 RMK 1CU025 6AC070 A3013
ROAH 242030Z 12006KT 9999 VCSH FEW025 BKN070 21/19 Q1020 RMK 1CU025 6AC070 A3013
ROAH 242000Z 12007KT 9999 -SHRA FEW020 SCT040 BKN060 21/19 Q1020 RMK 1CU020 3CU040 6SC060 A3013
ROAH 241930Z 12004KT 9999 VCSH FEW020 BKN040 21/19 Q1020 RMK 1CU020 6CU040 A3013
ROAH 241900Z 12006KT 9999 VCSH FEW020 SCT060 20/18 Q1020 RMK 1CU020 4SC060 A3013
ROAH 241830Z 11005KT 9999 FEW020 BKN060 20/18 Q1020 RMK 1CU020 5SC060 A3013
ROAH 241800Z 10005KT 9999 FEW020 BKN060 20/18 Q1020 RMK 1CU020 5SC060 A3014
ROAH 241730Z 11006KT 9999 FEW020 BKN060 20/18 Q1021 RMK 1CU020 7SC060 A3015
ROAH 241700Z 10006KT 9999 FEW020 BKN060 21/18 Q1021 RMK 1CU020 6SC060 A3016
ROAH 241630Z 11007KT 9999 FEW020 BKN050 21/17 Q1021 RMK 1CU020 6SC050 A3016
ROAH 241600Z 12009KT 9999 FEW020 BKN050 20/17 Q1021 RMK 1CU020 6SC050 A3017
ROAH 241530Z 11008KT 9999 FEW025 BKN050 21/17 Q1022 RMK 1CU025 6SC050 A3018
ROAH 241500Z 12007KT 9999 FEW025 BKN050 20/16 Q1022 RMK 1CU025 7SC050 A3018
ROAH 241430Z 11008KT 9999 FEW025 BKN050 21/16 Q1022 RMK 1CU025 7SC050 A3019
ROAH 241400Z 11008KT 9999 FEW025 BKN050 20/16 Q1022 RMK 1CU025 6SC050 A3019
ROAH 241330Z 11008KT 9999 FEW020 BKN040 21/16 Q1022 RMK 1CU020 6SC040 A3020
ROAH 241300Z 11008KT 9999 FEW020 BKN040 20/16 Q1022 RMK 1CU020 7SC040 A3020
ROAH 241230Z 11008KT 9999 FEW020 BKN040 20/16 Q1022 RMK 1CU020 7SC040 A3020
ROAH 241200Z 12008KT 9999 FEW025 BKN042 20/16 Q1022 RMK 1CU025 6SC042 A3020
ROAH 241130Z 11007KT 9999 FEW025 20/16 Q1022 RMK 1CU025 A3019
ROAH 241100Z 11008KT 9999 FEW030 20/15 Q1022 RMK 1CU030 A3018
ROAH 241030Z 10006KT 060V130 9999 FEW025 20/15 Q1022 RMK 1CU025 A3018
ROAH 241000Z 09007KT 030V120 9999 FEW025 20/15 Q1022 RMK 1CU025 A3018
ROAH 240930Z 08010KT 030V120 9999 FEW025 20/15 Q1022 RMK 1CU025 A3018
ROAH 240900Z 09009KT 070V230 9999 FEW025 20/15 Q1022 RMK 1CU025 A3018
ROAH 240830Z 08010KT 9999 FEW025 21/15 Q1021 RMK 2CU025 A3018
ROAH 240800Z 09011KT 9999 FEW027 21/15 Q1021 RMK 2CU027 A3017
ROAH 240730Z 08011KT 9999 FEW027 21/15 Q1021 RMK 2CU027 A3018
ROAH 240700Z 08011KT 050V110 9999 FEW030 21/14 Q1021 RMK 2CU030 A3018
ROAH 240630Z 10009KT 070V130 9999 FEW030 22/14 Q1022 RMK 2CU030 A3018
ROAH 240600Z 09009KT 050V140 9999 FEW030 22/15 Q1022 RMK 2CU030 A3018
ROAH 240530Z 08011KT 050V110 9999 FEW030 22/14 Q1022 RMK 2CU030 A3019
ROAH 240500Z 12007KT 080V160 9999 FEW030 23/14 Q1022 RMK 1CU030 A3020
ROAH 240430Z 10009KT 050V140 9999 FEW030 22/13 Q1023 RMK 2CU030 A3021
ROAH 240400Z 12007KT 040V160 9999 FEW032 23/14 Q1023 RMK 2CU032 A3023
ROAH 240330Z 10006KT 050V130 9999 FEW030 22/14 Q1024 RMK 1CU030 A3024
ROAH 240300Z 13007KT 040V190 9999 FEW033 22/14 Q1024 RMK 2CU033 A3025
ROAH 240230Z 10008KT 040V170 9999 FEW030 21/14 Q1025 RMK 1CU030 A3027
ROAH 240200Z 09007KT 030V140 9999 FEW030 21/13 Q1025 RMK 1CU030 A3028
ROAH 240130Z 10008KT 040V140 9999 FEW030 22/13 Q1025 RMK 1CU030 A3029
ROAH 240100Z 08010KT 050V110 9999 FEW030 21/13 Q1026 RMK 2CU030 A3030
ROAH 240030Z 08009KT 9999 FEW030 20/13 Q1026 RMK 2CU030 A3030
ROAH 240000Z 08010KT 9999 FEW030 19/14 Q1026 RMK 1CU030 A3030
ROAH 232330Z 08006KT 040V110 9999 FEW030 18/14 Q1025 RMK 1CU030 A3029
ROAH 232300Z 07004KT 9999 FEW030 17/13 Q1025 RMK 2CU030 A3028
ROAH 232230Z VRB02KT 9999 FEW030 17/13 Q1025 RMK 2CU030 A3028
ROAH 232200Z 05003KT 9999 FEW030 15/12 Q1025 RMK 2CU030 A3027
ROAH 232130Z 06003KT 9999 FEW030 16/12 Q1025 RMK 2CU030 A3027
ROAH 232100Z 06002KT 9999 FEW030 16/12 Q1024 RMK 2CU030 A3026
ROAH 232030Z 05003KT 9999 FEW030 16/12 Q1024 RMK 1CU030 A3025
ROAH 232000Z 08003KT 9999 FEW030 15/11 Q1024 RMK 1CU030 A3026
ROAH 231930Z 08003KT 9999 FEW030 16/11 Q1024 RMK 1CU030 A3026
ROAH 231900Z 07003KT 9999 FEW030 16/12 Q1024 RMK 2CU030 A3026
ROAH 231830Z 04001KT 9999 FEW030 17/12 Q1025 RMK 2CU030 A3027
ROAH 231800Z 05001KT 9999 FEW030 16/12 Q1025 RMK 1CU030 A3028
ROAH 231730Z 08002KT 9999 FEW030 16/11 Q1025 RMK 1CU030 A3028
ROAH 231700Z 07003KT 9999 FEW030 17/12 Q1025 RMK 2CU030 A3029
ROAH 231630Z 09002KT 9999 FEW030 17/12 Q1025 RMK 2CU030 A3029
ROAH 231600Z 05002KT 9999 SCT030 17/11 Q1026 RMK 3CU030 A3030
ROAH 231530Z 07003KT 030V100 9999 FEW030 17/11 Q1026 RMK 1CU030 A3031
ROAH 231500Z 08003KT 9999 FEW030 17/11 Q1026 RMK 1CU030 A3031
ROAH 231430Z 09004KT 070V130 9999 FEW030 17/11 Q1026 RMK 1CU030 A3031
ROAH 231400Z 12004KT 9999 SCT030 17/11 Q1026 RMK 4CU030 A3031
ROAH 231330Z 07004KT 050V120 9999 SCT030 17/11 Q1026 RMK 3CU030 A3031
ROAH 231300Z 05006KT 9999 SCT030 17/11 Q1026 RMK 4CU030 A3031
ROAH 231230Z 04008KT 9999 BKN030 18/11 Q1026 RMK 5CU030 A3031
ROAH 231200Z 05008KT 9999 SCT030 18/11 Q1026 RMK 3CU030 A3031
ROAH 231130Z 05010KT 9999 FEW030 18/11 Q1026 RMK 2CU030 A3031
ROAH 231100Z 06010KT 9999 FEW030 18/11 Q1026 RMK 2CU030 A3030
ROAH 231030Z 07009KT 030V100 9999 FEW030 18/11 Q1025 RMK 1CU030 A3029
ROAH 231000Z 05009KT 9999 FEW030 18/11 Q1025 RMK 1CU030 A3028
ROAH 230930Z 07010KT 030V100 9999 FEW030 18/11 Q1025 RMK 1CU030 A3028
ROAH 230900Z 07011KT 9999 FEW030 19/11 Q1025 RMK 1CU030 A3028
ROAH 230830Z 07010KT 030V100 9999 FEW030 20/11 Q1025 RMK 1CU030 A3028
ROAH 230800Z 07012KT 040V100 9999 FEW030 19/11 Q1025 RMK 1CU030 A3028
ROAH 230730Z 09011KT 9999 SCT035 20/11 Q1025 RMK 3CU035 A3028
ROAH 230700Z 07012KT 040V100 9999 FEW035 20/11 Q1025 RMK 2CU035 A3028
ROAH 230630Z 08011KT 030V100 9999 FEW035 20/12 Q1025 RMK 2CU035 A3028